Great Lakes - Lake Erie and Lake Ontario: Past 24 Hour Conditions

 

Goderich

09:00 PM EST 20 November 2014
This table is a summary of hourly weather conditions for the past 24 hours.
Date / Time
(EST)
Wind(knots) Conditions Visibility(km) Pressure(kPa) Air tempC) Relative humidity(%) Dew pointC) Wind Chill
20 November 2014
21:00 WNW 16 gust 25 N/A N/A 101.6 -5 69 -10 -13
20:00 WNW 19 gust 26 N/A N/A 101.5 -4 57 -12 -13
19:00 NW 19 gust 30 N/A N/A 101.4 -5 74 -9 -14
18:00 W 17 gust 27 N/A N/A 101.3 -4 55 -12 -12
17:00 W 18 gust 25 N/A N/A 101.2 -4 48 -13 -12
16:00 W 18 gust 26 N/A N/A 101.1 -4 44 -14 -12
15:00 W 19 gust 26 N/A N/A 101.1 -4 60 -11 -13
14:00 W 21 gust 29 N/A N/A 101.0 -4 53 -12 -13
13:00 W 24 gust 30 N/A N/A 101.0 -4 46 -14 -13
12:00 W 17 gust 29 N/A N/A 101.0 -4 61 -11 -12
11:00 W 21 gust 31 N/A N/A 101.0 -4 63 -10 -13
10:00 W 21 gust 30 N/A N/A 101.0 -4 59 -11 -13
9:00 W 21 gust 33 N/A N/A 101.0 -4 61 -10 -13
8:00 WSW 22 gust 31 N/A N/A 100.9 -4 64 -10 -13
7:00 W 22 gust 32 N/A N/A 100.9 -4 67 -9 -13
6:00 W 23 gust 34 N/A N/A 100.8 -4 66 -9 -13
5:00 W 25 gust 33 N/A N/A 100.8 -4 64 -10 -13
4:00 WSW 24 gust 33 N/A N/A 100.8 -4 69 -9 -13
3:00 W 23 gust 34 N/A N/A 100.7 -3 64 -9 -12
2:00 WSW 24 gust 31 N/A N/A 100.7 -3 65 -9 -12
1:00 W 24 gust 33 N/A N/A 100.7 -3 63 -9 -12
0:00 W 20 gust 32 N/A N/A 100.7 -3 64 -9 -11
19 November 2014
23:00 W 26 gust 33 N/A N/A 100.7 -3 62 -9 -12
22:00 WSW 24 gust 32 N/A N/A 100.6 -3 68 -8 -11
21:00 WSW 26 gust 37 N/A N/A 100.6 -2 69 -7 -11
 
Map of Great Lakes - Lake Erie and Lake Ontario marine weather areas Egbert N Huron - 45003 W Erie - 45005 S Huron - 45008 Lake Ontario - 45012 Port Stanley - 45132 Prince Edward Point - 45135 Georgian Bay - 45137 Grimsby - 45139 Port Colborne - 45142 South Georgian Bay - 45143 Lake St Clair - 45147 South Lake Huron - 45149 Lake Simcoe - 45151 Lake Nipissing - 45152 North Channel - 45154 Ajax - 45159 Sault Ste. Marie Airport Greater Sudbury Airport North Bay Airport Gore Bay-Manitoulin Airport Great Duck Island Brockville Grenadier Island Kemptville Kingston Airport Collingwood Lagoon City Muskoka Airport Parry Sound Harbour Lake Simcoe Regional Airport Wiarton Airport Goderich Sarnia Chris Hadfield Airport Tobermory Harrow AAFC Port Weller St. Catharines Airport Southeast Shoal Vineland Station Welland-Pelham Windsor Airport Burlington Lift Bridge Cobourg Hamilton Munro Int'l Airport Oshawa Municipal Airport Point Petre Toronto City Centre Airport Toronto Pearson Int'l Airport CFB Trenton Peterborough Municipal Airport Killarney Western Islands CFB Borden Cove Island Long Point Port Colborne Erieau Point Pelee Toronto Buttonville Municipal Airport
Legend: buoyBuoy land stationLand Station » US Marine Weather